Time;durP1;ratioP1;P1;durP2;ratioP2;P2;SDS_P1;SDS_P2;PMS_P1;PMS_P2;Temp;Humidity;BMP_temperature;BMP_pressure;BME280_temperature;BME280_humidity;BME280_pressure;Samples;Min_cycle;Max_cycle;Signal;HPM_P1;HPM_P2
2023/11/28 00:00:41;;;;;;;0.00;0.00;;;23.70;44.40;;;;;;5033367;28;20565;-45
2023/11/28 00:03:11;;;;;;;0.00;0.00;;;23.70;44.30;;;;;;5033451;28;20203;-47
2023/11/28 00:05:42;;;;;;;0.00;0.00;;;23.70;44.30;;;;;;5033640;28;20196;-47
2023/11/28 00:08:13;;;;;;;0.00;0.00;;;23.70;44.20;;;;;;5033525;28;20242;-45
2023/11/28 00:10:44;;;;;;;0.00;0.00;;;23.80;44.20;;;;;;5032987;28;20605;-48
2023/11/28 00:13:16;;;;;;;0.03;0.03;;;23.80;44.20;;;;;;5031544;28;20192;-48
2023/11/28 00:15:47;;;;;;;0.00;0.00;;;23.80;44.30;;;;;;5033200;28;20196;-47
2023/11/28 00:18:18;;;;;;;0.00;0.00;;;23.80;44.30;;;;;;5033469;28;20658;-48
2023/11/28 00:20:48;;;;;;;0.00;0.00;;;23.80;44.30;;;;;;5033119;28;20223;-45
2023/11/28 00:23:19;;;;;;;0.10;0.10;;;23.80;44.40;;;;;;5033082;28;20810;-47
2023/11/28 00:25:50;;;;;;;0.00;0.00;;;23.80;44.40;;;;;;5032792;28;20192;-47
2023/11/28 00:28:24;;;;;;;0.00;0.00;;;23.80;44.30;;;;;;5032454;28;20196;-46
2023/11/28 00:30:54;;;;;;;0.00;0.00;;;23.80;44.30;;;;;;5032698;28;20228;-45
2023/11/28 00:33:25;;;;;;;0.00;0.00;;;23.70;44.30;;;;;;5032836;28;20196;-47
2023/11/28 00:35:56;;;;;;;0.00;0.00;;;23.80;44.30;;;;;;5032696;28;20398;-46
2023/11/28 00:38:26;;;;;;;0.00;0.00;;;23.80;44.00;;;;;;5019644;28;20667;-47
2023/11/28 00:40:57;;;;;;;0.00;0.00;;;23.80;43.80;;;;;;5024475;28;20350;-48
2023/11/28 00:43:30;;;;;;;0.03;0.03;;;23.80;43.70;;;;;;5032043;28;20219;-47
2023/11/28 00:46:01;;;;;;;0.00;0.00;;;23.80;43.60;;;;;;5032257;28;20192;-47
2023/11/28 00:48:31;;;;;;;0.00;0.00;;;23.80;43.50;;;;;;5032923;28;20204;-47
2023/11/28 00:51:02;;;;;;;0.00;0.00;;;23.80;43.50;;;;;;5032378;28;20232;-48
2023/11/28 00:53:33;;;;;;;0.10;0.10;;;23.80;43.40;;;;;;5030245;28;20265;-47
2023/11/28 00:56:03;;;;;;;0.00;0.00;;;23.80;43.40;;;;;;5032665;28;20207;-45
2023/11/28 00:58:36;;;;;;;0.00;0.00;;;23.80;43.40;;;;;;5032371;28;20326;-45
2023/11/28 01:01:07;;;;;;;0.05;0.05;;;23.80;43.40;;;;;;5028937;28;20209;-45
2023/11/28 01:03:38;;;;;;;0.00;0.00;;;23.90;43.50;;;;;;5032650;28;20192;-45
2023/11/28 01:06:10;;;;;;;0.00;0.00;;;23.90;43.50;;;;;;5029038;28;20189;-45
2023/11/28 01:08:40;;;;;;;0.00;0.00;;;23.90;43.50;;;;;;5032199;28;20207;-47
2023/11/28 01:11:11;;;;;;;0.00;0.00;;;23.90;43.60;;;;;;5031645;28;20247;-47
2023/11/28 01:13:44;;;;;;;0.00;0.00;;;23.90;43.60;;;;;;5031685;28;20262;-44
2023/11/28 01:16:15;;;;;;;0.00;0.00;;;23.90;43.60;;;;;;5031718;28;20193;-45
2023/11/28 01:18:46;;;;;;;0.00;0.00;;;23.90;43.60;;;;;;5031894;28;20200;-47
2023/11/28 01:21:17;;;;;;;0.00;0.00;;;23.90;43.60;;;;;;5031988;28;20278;-49
2023/11/28 01:23:48;;;;;;;0.00;0.00;;;24.00;43.60;;;;;;5031639;28;20196;-47
2023/11/28 01:26:18;;;;;;;0.00;0.00;;;24.00;43.60;;;;;;5032246;28;20200;-47
2023/11/28 01:28:51;;;;;;;0.00;0.00;;;24.00;43.50;;;;;;5031524;28;20200;-45
2023/11/28 01:31:24;;;;;;;0.00;0.00;;;24.00;43.40;;;;;;5031794;28;20232;-47
2023/11/28 01:33:55;;;;;;;0.00;0.00;;;24.00;43.40;;;;;;5032424;28;20200;-45
2023/11/28 01:36:25;;;;;;;0.00;0.00;;;24.10;43.50;;;;;;5031921;28;20554;-47
2023/11/28 01:38:57;;;;;;;0.00;0.00;;;24.00;43.50;;;;;;5031904;28;20673;-47
2023/11/28 01:41:28;;;;;;;0.00;0.00;;;24.10;43.40;;;;;;5031731;28;20716;-46
2023/11/28 01:44:05;;;;;;;0.00;0.00;;;24.10;43.50;;;;;;5031300;28;20204;-47
2023/11/28 01:46:37;;;;;;;0.00;0.00;;;24.20;43.60;;;;;;5031827;28;20196;-45
2023/11/28 01:49:08;;;;;;;0.00;0.00;;;24.20;43.60;;;;;;5032034;28;20200;-46
2023/11/28 01:51:39;;;;;;;0.00;0.00;;;24.20;43.60;;;;;;5031311;28;20679;-48
2023/11/28 01:54:10;;;;;;;0.00;0.00;;;24.20;43.60;;;;;;5031451;28;20203;-47
2023/11/28 01:56:41;;;;;;;0.00;0.00;;;24.20;43.60;;;;;;5031121;28;20763;-43
2023/11/28 01:59:15;;;;;;;0.00;0.00;;;24.20;43.60;;;;;;5031188;28;20207;-46
2023/11/28 02:01:46;;;;;;;0.00;0.00;;;24.30;43.60;;;;;;5031107;28;20679;-49
2023/11/28 02:04:17;;;;;;;0.00;0.00;;;24.30;43.70;;;;;;5031187;28;20196;-45
2023/11/28 02:06:48;;;;;;;0.00;0.00;;;24.30;43.70;;;;;;5031371;28;20196;-47
2023/11/28 02:09:19;;;;;;;0.00;0.00;;;24.30;43.70;;;;;;5031550;28;20196;-46
2023/11/28 02:11:50;;;;;;;0.00;0.00;;;24.30;43.70;;;;;;5031464;28;20240;-47
2023/11/28 02:14:23;;;;;;;0.00;0.00;;;24.30;43.70;;;;;;5031064;28;20191;-47
2023/11/28 02:16:53;;;;;;;0.00;0.00;;;24.30;43.60;;;;;;5030726;28;20199;-43
2023/11/28 02:19:24;;;;;;;0.00;0.00;;;24.30;43.50;;;;;;5031128;28;20200;-47
2023/11/28 02:21:55;;;;;;;0.00;0.00;;;24.40;43.60;;;;;;5029639;28;20648;-46
2023/11/28 02:24:27;;;;;;;0.00;0.00;;;24.40;43.50;;;;;;5031296;28;20196;-48
2023/11/28 02:27:00;;;;;;;0.00;0.00;;;24.40;43.50;;;;;;5031302;28;20234;-46
2023/11/28 02:29:31;;;;;;;0.05;0.05;;;24.50;43.50;;;;;;5022520;28;20204;-46
2023/11/28 02:32:01;;;;;;;0.00;0.00;;;24.50;43.50;;;;;;5011799;28;20237;-45
2023/11/28 02:34:32;;;;;;;0.00;0.00;;;24.50;43.60;;;;;;5011809;28;20573;-45
2023/11/28 02:37:03;;;;;;;0.00;0.00;;;24.50;43.60;;;;;;5011505;28;20378;-47
2023/11/28 02:39:33;;;;;;;0.00;0.00;;;24.50;43.60;;;;;;5014791;28;20232;-46
2023/11/28 02:42:06;;;;;;;0.00;0.00;;;24.60;43.70;;;;;;5034894;28;20201;-47
2023/11/28 02:44:37;;;;;;;0.00;0.00;;;24.60;43.60;;;;;;5034659;28;20358;-45
2023/11/28 02:47:07;;;;;;;0.10;0.10;;;24.60;43.60;;;;;;5034758;28;20203;-47
2023/11/28 02:49:38;;;;;;;0.00;0.00;;;24.60;43.60;;;;;;5034482;28;20192;-46
2023/11/28 02:52:09;;;;;;;0.00;0.00;;;24.70;43.70;;;;;;5035233;28;20695;-45
2023/11/28 02:54:40;;;;;;;0.00;0.00;;;24.70;43.60;;;;;;5032125;28;20191;-48
2023/11/28 02:57:13;;;;;;;0.00;0.00;;;24.70;43.60;;;;;;5034598;28;20227;-45
2023/11/28 02:59:44;;;;;;;0.00;0.00;;;24.70;43.60;;;;;;5034623;28;20212;-48
2023/11/28 03:02:14;;;;;;;0.00;0.00;;;24.70;43.60;;;;;;5034832;28;20210;-45
2023/11/28 03:04:45;;;;;;;0.03;0.03;;;24.70;43.60;;;;;;5034904;28;20196;-47
2023/11/28 03:07:16;;;;;;;0.00;0.00;;;24.80;43.70;;;;;;5034800;28;20215;-48
2023/11/28 03:09:47;;;;;;;0.00;0.00;;;24.80;43.50;;;;;;5034424;28;20372;-45
2023/11/28 03:12:19;;;;;;;0.00;0.00;;;24.80;43.50;;;;;;5034229;28;20231;-47
2023/11/28 03:14:50;;;;;;;0.05;0.05;;;24.90;43.60;;;;;;5033192;28;20196;-47
2023/11/28 03:17:21;;;;;;;0.00;0.00;;;24.90;43.50;;;;;;5014640;28;20561;-48
2023/11/28 03:19:52;;;;;;;0.00;0.00;;;24.90;43.60;;;;;;5014710;28;20227;-47
2023/11/28 03:22:23;;;;;;;0.00;0.00;;;24.90;43.60;;;;;;5014856;28;20216;-47
2023/11/28 03:24:54;;;;;;;0.00;0.00;;;24.90;43.60;;;;;;5014301;28;20197;-45
2023/11/28 03:27:27;;;;;;;0.00;0.00;;;25.00;43.60;;;;;;5014179;28;20282;-47
2023/11/28 03:29:57;;;;;;;0.00;0.00;;;25.00;43.70;;;;;;5014569;28;20216;-47
2023/11/28 03:32:28;;;;;;;0.00;0.00;;;25.00;43.80;;;;;;5014534;28;20229;-47
2023/11/28 03:34:59;;;;;;;0.00;0.00;;;25.10;43.80;;;;;;5014432;28;20223;-47
2023/11/28 03:37:30;;;;;;;0.00;0.00;;;25.10;43.80;;;;;;5014399;28;20207;-48
2023/11/28 03:40:00;;;;;;;0.00;0.00;;;25.10;43.80;;;;;;5018661;28;20315;-48
2023/11/28 03:42:33;;;;;;;0.00;0.00;;;25.10;43.90;;;;;;5033907;28;20565;-47
2023/11/28 03:45:05;;;;;;;0.00;0.00;;;25.10;43.90;;;;;;5034112;28;20207;-46
2023/11/28 03:47:35;;;;;;;0.00;0.00;;;25.20;43.90;;;;;;5034131;28;20791;-47
2023/11/28 03:50:06;;;;;;;0.00;0.00;;;25.20;43.90;;;;;;5033051;28;20225;-48
2023/11/28 03:52:37;;;;;;;0.00;0.00;;;25.20;44.00;;;;;;5033765;28;20274;-47
2023/11/28 03:55:09;;;;;;;0.05;0.05;;;25.30;44.10;;;;;;5033899;28;20351;-47
2023/11/28 03:57:41;;;;;;;0.00;0.00;;;25.30;44.00;;;;;;5033662;28;20200;-48
2023/11/28 04:00:13;;;;;;;0.00;0.00;;;25.30;43.90;;;;;;5033775;28;20223;-47
2023/11/28 04:02:43;;;;;;;0.00;0.00;;;25.30;43.80;;;;;;5033553;28;20196;-45
2023/11/28 04:05:14;;;;;;;0.00;0.00;;;25.30;43.80;;;;;;5033538;28;20467;-46
2023/11/28 04:07:45;;;;;;;0.00;0.00;;;25.40;43.80;;;;;;5033628;28;20223;-45
2023/11/28 04:10:16;;;;;;;0.00;0.00;;;25.40;43.80;;;;;;5033470;28;20227;-45
2023/11/28 04:12:48;;;;;;;0.00;0.00;;;25.40;43.80;;;;;;5033256;28;20588;-48
2023/11/28 04:15:19;;;;;;;0.00;0.00;;;25.50;43.90;;;;;;5033434;28;20201;-47
2023/11/28 04:17:50;;;;;;;0.00;0.00;;;25.50;43.80;;;;;;5033140;28;20199;-47
2023/11/28 04:20:21;;;;;;;0.00;0.00;;;25.50;43.80;;;;;;5031230;28;20209;-45
2023/11/28 04:22:51;;;;;;;0.00;0.00;;;25.50;43.80;;;;;;5033123;28;20192;-45
2023/11/28 04:25:23;;;;;;;0.00;0.00;;;25.60;44.00;;;;;;5033369;28;20590;-46
2023/11/28 04:27:55;;;;;;;0.00;0.00;;;25.60;43.90;;;;;;5033113;28;20200;-46
2023/11/28 04:30:26;;;;;;;0.03;0.03;;;25.60;43.80;;;;;;5033363;28;20225;-48
2023/11/28 04:32:57;;;;;;;0.00;0.00;;;25.60;43.80;;;;;;5032974;28;20571;-45
2023/11/28 04:35:28;;;;;;;0.08;0.08;;;25.60;43.80;;;;;;5014502;28;20197;-45
2023/11/28 04:37:58;;;;;;;0.00;0.00;;;25.60;43.80;;;;;;5013333;28;20208;-48
2023/11/28 04:40:29;;;;;;;0.00;0.00;;;25.70;43.90;;;;;;5021503;28;20690;-46
2023/11/28 04:43:02;;;;;;;0.00;0.00;;;25.70;44.00;;;;;;5032796;28;20196;-45
2023/11/28 04:45:33;;;;;;;0.00;0.00;;;25.70;44.00;;;;;;5032830;28;20310;-45
2023/11/28 04:48:03;;;;;;;0.00;0.00;;;25.70;44.00;;;;;;5032635;28;20284;-46
2023/11/28 04:50:34;;;;;;;0.00;0.00;;;25.80;44.00;;;;;;5032521;28;20266;-45
2023/11/28 04:53:05;;;;;;;0.00;0.00;;;25.80;44.00;;;;;;5033415;28;20679;-47
2023/11/28 04:55:35;;;;;;;0.03;0.03;;;25.80;43.90;;;;;;5031961;28;20207;-47
2023/11/28 04:58:08;;;;;;;0.00;0.00;;;25.80;43.90;;;;;;5031841;28;20215;-47
2023/11/28 05:00:39;;;;;;;0.00;0.00;;;25.90;44.00;;;;;;5030171;28;20219;-43
2023/11/28 05:03:10;;;;;;;0.00;0.00;;;25.90;44.10;;;;;;5011860;28;20649;-45
2023/11/28 05:05:41;;;;;;;0.00;0.00;;;25.90;43.90;;;;;;5012876;28;20200;-47
2023/11/28 05:08:11;;;;;;;0.00;0.00;;;25.90;43.90;;;;;;5012877;28;20207;-48
2023/11/28 05:10:42;;;;;;;0.00;0.00;;;25.90;43.90;;;;;;5022425;28;20235;-45
2023/11/28 05:13:15;;;;;;;0.00;0.00;;;25.90;43.80;;;;;;5031740;28;20230;-45
2023/11/28 05:15:46;;;;;;;0.00;0.00;;;26.00;43.90;;;;;;5017983;28;20189;-47
2023/11/28 05:18:16;;;;;;;0.00;0.00;;;26.00;43.90;;;;;;5032030;28;20199;-45
2023/11/28 05:20:47;;;;;;;0.00;0.00;;;26.00;44.00;;;;;;5032245;28;20216;-45
2023/11/28 05:23:18;;;;;;;0.00;0.00;;;26.10;44.00;;;;;;5032052;28;20565;-49
2023/11/28 05:25:49;;;;;;;0.10;0.10;;;26.10;44.00;;;;;;5031805;28;20192;-47
2023/11/28 05:28:21;;;;;;;0.00;0.00;;;26.10;44.00;;;;;;5031537;28;20350;-45
2023/11/28 05:30:52;;;;;;;0.00;0.00;;;26.10;44.00;;;;;;5032193;28;20219;-48
2023/11/28 05:33:23;;;;;;;0.00;0.00;;;26.10;44.10;;;;;;5031954;28;20228;-47
2023/11/28 05:35:53;;;;;;;0.00;0.00;;;26.10;44.00;;;;;;5032038;28;20200;-46
2023/11/28 05:38:24;;;;;;;0.00;0.00;;;26.20;44.10;;;;;;5031986;28;20200;-46
2023/11/28 05:40:55;;;;;;;0.00;0.00;;;26.20;44.10;;;;;;5031580;28;20224;-47
2023/11/28 05:43:28;;;;;;;0.00;0.00;;;26.20;44.00;;;;;;5031552;28;20204;-47
2023/11/28 05:45:58;;;;;;;0.00;0.00;;;26.20;44.00;;;;;;5031420;28;20200;-47
2023/11/28 05:48:29;;;;;;;0.00;0.00;;;26.20;44.00;;;;;;5031766;28;20574;-44
2023/11/28 05:51:00;;;;;;;0.00;0.00;;;26.20;43.90;;;;;;5032075;28;20220;-47
2023/11/28 05:53:30;;;;;;;0.00;0.00;;;26.30;44.00;;;;;;5031553;28;20587;-46
2023/11/28 05:56:01;;;;;;;0.00;0.00;;;26.20;43.80;;;;;;5031388;28;20207;-45
2023/11/28 05:58:34;;;;;;;0.00;0.00;;;26.30;43.90;;;;;;5031642;28;20200;-44
2023/11/28 06:01:05;;;;;;;0.00;0.00;;;26.30;43.80;;;;;;5031787;28;20216;-47
2023/11/28 06:03:37;;;;;;;0.00;0.00;;;26.40;44.00;;;;;;5031487;28;20231;-46
2023/11/28 06:06:09;;;;;;;0.00;0.00;;;26.40;43.90;;;;;;5031105;28;20208;-47
2023/11/28 06:08:40;;;;;;;0.00;0.00;;;26.40;43.90;;;;;;5031245;28;20200;-47
2023/11/28 06:11:13;;;;;;;0.00;0.00;;;26.40;43.90;;;;;;5031239;28;20227;-48
2023/11/28 06:13:45;;;;;;;0.00;0.00;;;26.40;43.90;;;;;;5033788;28;20220;-45
2023/11/28 06:16:16;;;;;;;0.00;0.00;;;26.40;43.90;;;;;;5037759;28;20211;-45
2023/11/28 06:18:47;;;;;;;0.00;0.00;;;26.50;43.90;;;;;;5037769;28;20199;-47
2023/11/28 06:21:18;;;;;;;0.00;0.00;;;26.50;43.90;;;;;;5037898;28;20227;-44
2023/11/28 06:23:49;;;;;;;0.00;0.00;;;26.50;43.90;;;;;;5036397;28;20721;-47
2023/11/28 06:26:20;;;;;;;0.00;0.00;;;26.50;43.80;;;;;;5033627;28;20192;-45
2023/11/28 06:28:52;;;;;;;0.00;0.00;;;26.50;43.80;;;;;;5036931;28;20656;-46
2023/11/28 06:31:23;;;;;;;0.00;0.00;;;26.50;43.80;;;;;;5036098;28;20215;-46
2023/11/28 06:33:54;;;;;;;0.00;0.00;;;26.60;43.70;;;;;;5036269;28;20220;-48
2023/11/28 06:36:25;;;;;;;0.00;0.00;;;26.60;43.70;;;;;;5037541;28;20283;-47
2023/11/28 06:38:55;;;;;;;0.00;0.00;;;26.60;43.70;;;;;;5037132;28;20199;-47
2023/11/28 06:41:26;;;;;;;0.00;0.00;;;26.60;43.60;;;;;;5035968;28;20302;-45
2023/11/28 06:43:59;;;;;;;0.00;0.00;;;26.60;43.50;;;;;;5037678;28;20204;-47
2023/11/28 06:46:29;;;;;;;0.00;0.00;;;26.60;43.50;;;;;;5037908;28;20196;-49
2023/11/28 06:49:00;;;;;;;0.00;0.00;;;26.60;43.50;;;;;;5037062;28;20291;-49
2023/11/28 06:51:31;;;;;;;0.00;0.00;;;26.70;43.60;;;;;;5037668;28;20571;-47
2023/11/28 06:54:02;;;;;;;0.00;0.00;;;26.70;43.60;;;;;;5037230;28;20682;-47
2023/11/28 06:56:33;;;;;;;0.00;0.00;;;26.60;43.50;;;;;;5037746;28;20196;-48
2023/11/28 06:59:05;;;;;;;0.00;0.00;;;26.70;43.50;;;;;;5037504;28;20354;-47
2023/11/28 07:01:36;;;;;;;0.00;0.00;;;26.70;43.50;;;;;;5037348;28;20353;-46
2023/11/28 07:04:07;;;;;;;0.00;0.00;;;26.60;43.40;;;;;;5036695;28;20220;-42
2023/11/28 07:06:38;;;;;;;0.00;0.00;;;26.70;43.50;;;;;;5037315;28;20196;-48
2023/11/28 07:09:08;;;;;;;0.00;0.00;;;26.70;43.50;;;;;;5037268;28;20231;-46
2023/11/28 07:11:40;;;;;;;0.00;0.00;;;26.60;43.50;;;;;;5025471;28;20588;-48
2023/11/28 07:14:15;;;;;;;0.00;0.00;;;26.60;43.50;;;;;;5019789;28;20221;-45
2023/11/28 07:16:45;;;;;;;0.00;0.00;;;26.60;43.40;;;;;;5017730;28;20195;-45
2023/11/28 07:19:16;;;;;;;0.00;0.00;;;26.60;43.40;;;;;;5017285;28;20549;-44
2023/11/28 07:21:47;;;;;;;0.00;0.00;;;26.60;43.40;;;;;;5017802;28;20727;-48
2023/11/28 07:24:18;;;;;;;0.00;0.00;;;26.60;43.40;;;;;;5017394;28;20208;-48
2023/11/28 07:26:48;;;;;;;0.00;0.00;;;26.60;43.40;;;;;;5020548;28;20199;-47
2023/11/28 07:29:21;;;;;;;0.00;0.00;;;26.60;43.50;;;;;;5033859;28;20196;-48
2023/11/28 07:31:52;;;;;;;0.00;0.00;;;26.60;43.40;;;;;;5034024;28;20200;-47
2023/11/28 07:34:22;;;;;;;0.00;0.00;;;26.60;43.40;;;;;;5033586;28;20245;-46
2023/11/28 07:36:53;;;;;;;0.00;0.00;;;26.60;43.30;;;;;;5034217;28;20196;-47
2023/11/28 07:39:24;;;;;;;0.00;0.00;;;26.60;43.30;;;;;;5033644;28;20196;-44
2023/11/28 07:41:55;;;;;;;0.00;0.00;;;26.50;43.20;;;;;;5014048;28;20209;-45
2023/11/28 07:44:30;;;;;;;0.00;0.00;;;26.50;43.80;;;;;;5013780;28;20212;-46
2023/11/28 07:47:01;;;;;;;0.00;0.00;;;26.50;43.10;;;;;;5014018;28;20200;-45
2023/11/28 07:49:31;;;;;;;0.00;0.00;;;26.50;43.10;;;;;;5013632;28;20200;-47
2023/11/28 07:52:02;;;;;;;0.00;0.00;;;26.50;43.10;;;;;;5014677;28;20228;-42
2023/11/28 07:54:33;;;;;;;0.00;0.00;;;26.50;43.20;;;;;;5014069;28;20596;-47
2023/11/28 07:57:04;;;;;;;0.00;0.00;;;26.50;43.20;;;;;;5014152;28;20197;-45
2023/11/28 07:59:36;;;;;;;0.00;0.00;;;26.40;43.10;;;;;;5014002;28;20223;-46
2023/11/28 08:02:07;;;;;;;0.00;0.00;;;26.40;43.20;;;;;;5014451;28;20193;-47
2023/11/28 08:04:38;;;;;;;0.00;0.00;;;26.40;43.20;;;;;;5013296;28;20197;-45
2023/11/28 08:07:08;;;;;;;0.00;0.00;;;26.40;43.20;;;;;;5013760;28;20197;-43
2023/11/28 08:09:39;;;;;;;0.00;0.00;;;26.40;43.30;;;;;;5015236;28;20774;-46
2023/11/28 08:12:10;;;;;;;0.00;0.00;;;26.30;43.20;;;;;;5033776;28;20200;-47
2023/11/28 08:14:43;;;;;;;0.00;0.00;;;26.30;43.30;;;;;;5033434;28;20588;-47
2023/11/28 08:17:13;;;;;;;0.00;0.00;;;26.20;43.20;;;;;;5033141;28;20553;-44
2023/11/28 08:19:44;;;;;;;0.00;0.00;;;26.20;43.30;;;;;;5033191;28;20212;-46
2023/11/28 08:22:15;;;;;;;0.00;0.00;;;26.20;43.30;;;;;;5032976;28;20207;-46
2023/11/28 08:24:45;;;;;;;0.00;0.00;;;26.20;43.30;;;;;;5033250;28;20211;-47
2023/11/28 08:27:19;;;;;;;0.00;0.00;;;26.20;43.30;;;;;;5031796;28;20203;-48
2023/11/28 08:29:52;;;;;;;0.00;0.00;;;26.20;43.40;;;;;;5013178;28;20220;-46
2023/11/28 08:32:22;;;;;;;0.00;0.00;;;26.10;43.30;;;;;;5012938;28;20196;-47
2023/11/28 08:34:53;;;;;;;0.00;0.00;;;26.10;43.30;;;;;;5027412;28;20228;-48
2023/11/28 08:37:24;;;;;;;0.00;0.00;;;26.10;43.30;;;;;;5032780;28;20200;-47
2023/11/28 08:39:54;;;;;;;0.00;0.00;;;26.00;43.30;;;;;;5028370;28;20683;-45
2023/11/28 08:42:25;;;;;;;0.00;0.00;;;26.00;43.30;;;;;;5032771;28;20258;-45
2023/11/28 08:44:57;;;;;;;0.00;0.00;;;26.00;43.30;;;;;;5032386;28;20208;-47
2023/11/28 08:47:28;;;;;;;0.00;0.00;;;26.00;43.30;;;;;;5031657;28;20589;-45
2023/11/28 08:50:01;;;;;;;0.00;0.00;;;25.90;43.30;;;;;;5030863;28;20216;-45
2023/11/28 08:52:31;;;;;;;0.00;0.00;;;25.90;43.30;;;;;;5033183;28;20255;-46
2023/11/28 08:55:03;;;;;;;0.00;0.00;;;25.90;43.30;;;;;;5032686;28;20647;-44
2023/11/28 08:57:35;;;;;;;0.00;0.00;;;25.90;43.20;;;;;;5032090;28;20196;-45
2023/11/28 09:00:09;;;;;;;0.00;0.00;;;25.80;43.20;;;;;;5032116;28;20212;-47
2023/11/28 09:02:39;;;;;;;0.08;0.08;;;25.80;43.20;;;;;;5032298;28;20670;-50
2023/11/28 09:05:10;;;;;;;0.00;0.00;;;25.70;43.10;;;;;;5032167;28;20196;-49
2023/11/28 09:07:41;;;;;;;0.00;0.00;;;25.70;43.20;;;;;;5030070;28;20527;-49
2023/11/28 09:10:13;;;;;;;0.00;0.00;;;25.70;43.20;;;;;;5031537;28;20509;-49
2023/11/28 09:12:47;;;;;;;0.00;0.00;;;25.70;43.30;;;;;;5028524;28;20599;-49
2023/11/28 09:15:20;;;;;;;0.00;0.00;;;25.60;43.20;;;;;;5024544;28;20197;-46
2023/11/28 09:17:50;;;;;;;0.00;0.00;;;25.60;43.20;;;;;;5031728;28;20199;-47
2023/11/28 09:20:21;;;;;;;0.00;0.00;;;25.60;43.20;;;;;;5027338;28;20216;-46
2023/11/28 09:22:52;;;;;;;0.00;0.00;;;25.60;43.20;;;;;;5031886;28;20192;-48
2023/11/28 09:25:23;;;;;;;0.00;0.00;;;25.60;43.20;;;;;;5031193;28;20203;-48
2023/11/28 09:27:54;;;;;;;0.00;0.00;;;25.50;43.20;;;;;;5031560;28;20196;-49
2023/11/28 09:30:26;;;;;;;0.00;0.00;;;25.50;43.20;;;;;;5031684;28;20223;-49
2023/11/28 09:32:57;;;;;;;0.00;0.00;;;25.40;43.10;;;;;;5031757;28;20187;-48
2023/11/28 09:35:28;;;;;;;0.00;0.00;;;25.40;43.10;;;;;;5030965;28;20196;-49
2023/11/28 09:37:59;;;;;;;0.00;0.00;;;25.40;43.20;;;;;;5031652;28;20208;-48
2023/11/28 09:40:29;;;;;;;0.00;0.00;;;25.30;43.10;;;;;;5031982;28;20230;-50
2023/11/28 09:43:00;;;;;;;0.00;0.00;;;25.40;43.30;;;;;;5030184;28;20553;-47
2023/11/28 09:45:34;;;;;;;0.00;0.00;;;25.30;43.10;;;;;;5030422;28;20197;-48
2023/11/28 09:48:08;;;;;;;0.00;0.00;;;25.30;43.20;;;;;;5030714;28;20208;-47
2023/11/28 09:50:40;;;;;;;0.00;0.00;;;25.30;43.30;;;;;;5031301;28;20255;-48
2023/11/28 09:53:11;;;;;;;0.00;0.00;;;25.20;43.20;;;;;;5030999;28;20614;-48
2023/11/28 09:55:43;;;;;;;0.00;0.00;;;25.20;43.30;;;;;;5030274;28;20200;-49
2023/11/28 09:58:15;;;;;;;0.00;0.00;;;25.20;43.30;;;;;;5030886;28;20545;-46
2023/11/28 10:00:48;;;;;;;0.00;0.00;;;25.20;43.30;;;;;;5030571;28;20218;-46
2023/11/28 10:03:20;;;;;;;0.00;0.00;;;25.10;43.30;;;;;;5030577;28;20195;-49
2023/11/28 10:05:53;;;;;;;0.00;0.00;;;25.10;43.40;;;;;;5030931;28;20196;-47
2023/11/28 10:08:24;;;;;;;0.00;0.00;;;25.00;43.40;;;;;;5031044;28;20199;-48
2023/11/28 10:10:55;;;;;;;0.00;0.00;;;25.10;43.40;;;;;;5029809;28;20223;-49
2023/11/28 10:13:26;;;;;;;0.00;0.00;;;25.00;43.40;;;;;;5030943;28;20220;-48
2023/11/28 10:16:00;;;;;;;0.00;0.00;;;25.00;43.40;;;;;;5030768;28;20595;-49
2023/11/28 10:18:30;;;;;;;0.00;0.00;;;25.00;43.50;;;;;;5031542;28;20200;-49
2023/11/28 10:21:01;;;;;;;0.00;0.00;;;24.90;43.40;;;;;;5030651;28;20208;-46
2023/11/28 10:23:32;;;;;;;0.10;0.10;;;24.90;43.50;;;;;;5030794;28;20196;-51
2023/11/28 10:26:03;;;;;;;0.00;0.00;;;24.90;43.40;;;;;;5030732;28;20200;-48
2023/11/28 10:28:36;;;;;;;0.00;0.00;;;24.90;43.50;;;;;;5030752;28;20207;-47
2023/11/28 10:31:11;;;;;;;0.00;0.00;;;24.80;43.40;;;;;;5030908;28;20223;-48
2023/11/28 10:33:42;;;;;;;0.00;0.00;;;24.80;43.40;;;;;;5012902;28;20689;-49
2023/11/28 10:36:16;;;;;;;0.00;0.00;;;24.80;43.50;;;;;;5012632;28;20197;-47
2023/11/28 10:38:47;;;;;;;0.00;0.00;;;24.70;43.50;;;;;;5024192;28;20201;-48
2023/11/28 10:41:18;;;;;;;0.00;0.00;;;24.70;43.50;;;;;;5030617;28;20227;-48
2023/11/28 10:43:49;;;;;;;0.00;0.00;;;24.70;43.60;;;;;;5029805;28;20216;-47
2023/11/28 10:46:21;;;;;;;0.00;0.00;;;24.70;43.70;;;;;;5030896;28;20192;-45
2023/11/28 10:48:52;;;;;;;0.00;0.00;;;24.60;43.60;;;;;;5030140;28;20211;-48
2023/11/28 10:51:24;;;;;;;0.00;0.00;;;24.60;43.70;;;;;;5030664;28;20222;-45
2023/11/28 10:54:00;;;;;;;0.00;0.00;;;24.60;43.70;;;;;;5030388;28;20228;-48
2023/11/28 10:56:35;;;;;;;0.00;0.00;;;24.50;43.70;;;;;;5030057;28;20208;-46
2023/11/28 10:59:10;;;;;;;0.00;0.00;;;24.50;43.70;;;;;;5020382;28;20188;-45
2023/11/28 11:01:46;;;;;;;0.05;0.05;;;24.50;43.70;;;;;;5012787;28;20319;-49
2023/11/28 11:04:17;;;;;;;0.00;0.00;;;24.50;43.70;;;;;;5028182;28;20565;-47
2023/11/28 11:06:48;;;;;;;0.00;0.00;;;24.40;43.70;;;;;;5032409;28;20188;-45
2023/11/28 11:09:19;;;;;;;0.00;0.00;;;24.40;43.70;;;;;;5034079;28;20196;-48
2023/11/28 11:11:50;;;;;;;0.00;0.00;;;24.40;43.80;;;;;;5032207;28;20588;-47
2023/11/28 11:14:33;;;;;;;0.00;0.00;;;24.40;43.80;;;;;;5033630;28;20227;-47
2023/11/28 11:17:18;;;;;;;0.10;0.10;;;24.30;43.80;;;;;;5030977;28;20189;-45
2023/11/28 11:19:52;;;;;;;0.00;0.00;;;24.30;43.80;;;;;;5033959;28;20214;-45
2023/11/28 11:22:24;;;;;;;0.00;0.00;;;24.30;43.80;;;;;;5033782;28;20196;-45
2023/11/28 11:24:55;;;;;;;0.00;0.00;;;24.20;43.80;;;;;;5032895;28;20193;-48
2023/11/28 11:27:27;;;;;;;0.03;0.03;;;24.20;43.90;;;;;;5034070;28;20640;-47
2023/11/28 11:29:58;;;;;;;0.00;0.00;;;24.20;43.90;;;;;;5034067;28;20214;-48
2023/11/28 11:32:30;;;;;;;0.10;0.10;;;24.10;43.90;;;;;;5034235;28;20196;-45
2023/11/28 11:35:02;;;;;;;0.10;0.10;;;24.10;44.00;;;;;;5033717;28;20239;-48
2023/11/28 11:37:38;;;;;;;0.00;0.00;;;24.10;43.90;;;;;;5034298;28;20207;-48
2023/11/28 11:40:11;;;;;;;0.00;0.00;;;24.10;44.00;;;;;;5034135;28;20617;-48
2023/11/28 11:42:42;;;;;;;0.00;0.00;;;24.00;44.00;;;;;;5034062;28;20563;-46
2023/11/28 11:45:14;;;;;;;0.00;0.00;;;24.00;44.00;;;;;;5033832;28;20203;-45
2023/11/28 11:47:47;;;;;;;0.00;0.00;;;24.00;44.00;;;;;;5034032;28;20197;-48
2023/11/28 11:50:19;;;;;;;0.00;0.00;;;24.00;44.00;;;;;;5033478;28;20223;-47
2023/11/28 11:52:50;;;;;;;0.00;0.00;;;24.00;44.10;;;;;;5033995;28;20204;-48
2023/11/28 11:55:21;;;;;;;0.08;0.08;;;23.90;44.10;;;;;;5033566;28;20220;-48
2023/11/28 11:57:52;;;;;;;0.00;0.00;;;23.90;44.10;;;;;;5033744;28;20199;-50
2023/11/28 12:00:24;;;;;;;0.00;0.00;;;23.80;44.10;;;;;;5033256;28;20239;-45
2023/11/28 12:02:59;;;;;;;0.00;0.00;;;23.80;44.10;;;;;;5033401;28;20227;-48
2023/11/28 12:05:29;;;;;;;0.00;0.00;;;23.80;44.10;;;;;;5033912;28;20199;-48
2023/11/28 12:08:01;;;;;;;0.00;0.00;;;23.80;44.10;;;;;;5034009;28;20197;-48
2023/11/28 12:10:32;;;;;;;0.00;0.00;;;23.80;44.10;;;;;;5033393;28;20220;-48
2023/11/28 12:13:02;;;;;;;0.00;0.00;;;23.70;44.10;;;;;;5033388;28;20211;-49
2023/11/28 12:15:33;;;;;;;0.00;0.00;;;23.70;44.60;;;;;;5033217;28;20228;-48
2023/11/28 12:18:14;;;;;;;0.08;0.08;;;23.70;44.10;;;;;;5033559;28;20303;-48
2023/11/28 12:20:45;;;;;;;0.00;0.00;;;23.70;44.20;;;;;;5033415;28;20223;-46
2023/11/28 12:23:15;;;;;;;0.00;0.00;;;23.70;44.20;;;;;;5033229;28;20192;-48
2023/11/28 12:25:46;;;;;;;0.00;0.00;;;23.60;44.20;;;;;;5033355;28;20204;-48
2023/11/28 12:28:17;;;;;;;0.00;0.00;;;23.60;44.10;;;;;;5032362;28;20192;-48
2023/11/28 12:30:49;;;;;;;0.05;0.05;;;23.60;44.20;;;;;;5032505;28;20216;-45
2023/11/28 12:33:23;;;;;;;0.00;0.00;;;23.50;44.20;;;;;;5025228;28;20204;-48
2023/11/28 12:35:54;;;;;;;0.00;0.00;;;23.50;44.20;;;;;;5013021;28;20224;-48
2023/11/28 12:38:25;;;;;;;0.00;0.00;;;23.50;44.20;;;;;;5013122;28;20201;-48
2023/11/28 12:40:58;;;;;;;0.00;0.00;;;23.50;44.20;;;;;;5029368;28;20216;-48
2023/11/28 12:43:29;;;;;;;0.00;0.00;;;23.40;44.20;;;;;;5032144;28;20204;-45
2023/11/28 12:46:00;;;;;;;0.00;0.00;;;23.40;44.20;;;;;;5032663;28;20207;-48
2023/11/28 12:48:33;;;;;;;0.00;0.00;;;23.40;44.30;;;;;;5032780;28;20212;-45
2023/11/28 12:51:05;;;;;;;0.00;0.00;;;23.40;44.20;;;;;;5032439;28;20583;-47
2023/11/28 12:53:36;;;;;;;0.00;0.00;;;23.40;44.30;;;;;;5033097;28;20204;-47
2023/11/28 12:56:09;;;;;;;0.00;0.00;;;23.30;44.20;;;;;;5032749;28;20307;-45
2023/11/28 12:58:39;;;;;;;0.00;0.00;;;23.30;44.30;;;;;;5032471;28;20203;-48
2023/11/28 13:01:10;;;;;;;0.00;0.00;;;23.30;44.30;;;;;;5032738;28;20687;-47
2023/11/28 13:03:45;;;;;;;0.00;0.00;;;23.30;44.30;;;;;;5032713;28;20200;-48
2023/11/28 13:06:15;;;;;;;0.00;0.00;;;23.30;44.30;;;;;;5032526;28;20655;-48
2023/11/28 13:08:46;;;;;;;0.10;0.10;;;23.20;44.90;;;;;;5032505;28;20200;-46